Terminal Aerodrome Forecast
Issued by NWS

Home | Current Version | Previous Version | Text Only | Print | Product List | Glossary Off
Versions: 1 2 3 4 5 6 7 8 9 10 11 12 13 14

000
FTUS43 KGRB 302339
TAFATW
TAF
KATW 302339Z 0100/0124 36009KT P6SM BKN035
     FM010200 36007KT P6SM SCT035
     FM012200 07007KT P6SM SKC=

USA.gov is the U.S. government's official web portal to all federal, state and local government web resources and services.